createdAt,value
2022-10-22T00:01:29.725Z,96252.31
2022-10-22T00:03:02.778Z,96283.31
2022-10-22T00:04:35.503Z,96305.88
2022-10-22T00:06:07.731Z,96329.50
2022-10-22T00:07:39.738Z,96340.72
2022-10-22T00:09:11.584Z,96324.56
2022-10-22T00:10:43.228Z,96298.75
2022-10-22T00:12:14.883Z,96281.56
2022-10-22T00:15:18.274Z,96286.81
2022-10-22T00:16:49.971Z,96284.56
2022-10-22T00:18:22.932Z,96279.75
2022-10-22T00:19:54.523Z,96272.66
2022-10-22T00:21:29.001Z,96287.72
2022-10-22T00:23:00.611Z,96280.69
2022-10-22T00:24:32.280Z,96272.41
2022-10-22T00:26:04.069Z,96273.94
2022-10-22T00:27:35.631Z,96259.53
2022-10-22T00:29:07.267Z,96264.25
2022-10-22T00:30:38.896Z,96268.16
2022-10-22T00:32:10.605Z,96268.13
2022-10-22T00:33:43.800Z,96264.72
2022-10-22T00:35:15.404Z,96265.75
2022-10-22T00:36:47.250Z,96259.69
2022-10-22T00:38:18.917Z,96254.59
2022-10-22T00:39:50.499Z,96245.22
2022-10-22T00:41:22.305Z,96248.41
2022-10-22T00:42:53.936Z,96260.34
2022-10-22T00:45:03.097Z,96260.78
2022-10-22T00:46:34.716Z,96257.88
2022-10-22T00:48:07.173Z,96262.19
2022-10-22T00:49:40.136Z,96278.56
2022-10-22T00:51:11.784Z,96278.97
2022-10-22T00:52:43.594Z,96289.78
2022-10-22T00:54:15.349Z,96294.13
2022-10-22T00:55:48.969Z,96290.81
2022-10-22T00:57:20.586Z,96290.09
2022-10-22T00:58:53.356Z,96294.44
2022-10-22T01:00:25.019Z,96314.06
2022-10-22T01:01:56.674Z,96326.13
2022-10-22T01:03:28.271Z,96331.53
2022-10-22T01:05:01.333Z,96326.91
2022-10-22T01:06:33.621Z,96329.69
2022-10-22T01:08:05.756Z,96316.59
2022-10-22T01:09:40.956Z,96317.81
2022-10-22T01:11:15.147Z,96317.31
2022-10-22T01:12:49.732Z,96329.03
2022-10-22T01:14:24.280Z,96325.28
2022-10-22T01:15:58.870Z,96318.31
2022-10-22T01:17:33.460Z,96330.22
2022-10-22T01:19:13.892Z,96322.69
2022-10-22T01:21:07.006Z,96333.13
2022-10-22T01:22:40.253Z,96328.81
2022-10-22T01:24:19.895Z,96342.25
2022-10-22T01:25:53.923Z,96340.53
2022-10-22T01:27:45.902Z,96331.53
2022-10-22T01:29:19.170Z,96338.25
2022-10-22T01:30:51.099Z,96324.88
2022-10-22T01:32:23.505Z,96336.47
2022-10-22T01:33:55.116Z,96333.94
2022-10-22T01:35:27.949Z,96330.03
2022-10-22T01:36:59.539Z,96326.19
2022-10-22T01:38:31.121Z,96318.50
2022-10-22T01:40:02.828Z,96318.69
2022-10-22T01:41:34.625Z,96320.28
2022-10-22T01:43:07.348Z,96314.94
2022-10-22T01:44:40.350Z,96311.06
2022-10-22T01:46:12.320Z,96315.28
2022-10-22T01:47:49.786Z,96320.97
2022-10-22T01:49:24.492Z,96315.47
2022-10-22T01:51:22.647Z,96320.09
2022-10-22T01:53:04.612Z,96313.25
2022-10-22T01:54:38.492Z,96300.03
2022-10-22T01:56:16.986Z,96289.25
2022-10-22T01:57:51.172Z,96285.47
2022-10-22T01:59:28.301Z,96290.88
2022-10-22T02:01:04.951Z,96286.56
2022-10-22T02:02:40.636Z,96278.63
2022-10-22T02:04:13.817Z,96273.34
2022-10-22T02:05:46.699Z,96276.31
2022-10-22T02:07:20.531Z,96277.03
2022-10-22T02:08:52.296Z,96288.50
2022-10-22T02:10:23.996Z,96293.81
2022-10-22T02:11:55.663Z,96292.78
2022-10-22T02:13:28.310Z,96287.13
2022-10-22T02:15:00.044Z,96284.88
2022-10-22T02:16:34.430Z,96283.63
2022-10-22T02:18:06.310Z,96295.47
2022-10-22T02:19:39.798Z,96301.94
2022-10-22T02:21:11.423Z,96292.84
2022-10-22T02:22:43.237Z,96296.84
2022-10-22T02:24:15.045Z,96311.84
2022-10-22T02:25:48.151Z,96313.03
2022-10-22T02:27:25.872Z,96313.88
2022-10-22T02:28:59.943Z,96301.50
2022-10-22T02:30:31.577Z,96304.53
2022-10-22T02:32:04.820Z,96312.94
2022-10-22T02:33:37.742Z,96309.97
2022-10-22T02:35:09.389Z,96319.28
2022-10-22T02:36:41.148Z,96314.69
2022-10-22T02:38:12.776Z,96304.94
2022-10-22T02:39:44.425Z,96308.25
2022-10-22T02:41:16.315Z,96308.25
2022-10-22T02:42:48.194Z,96320.50
2022-10-22T02:44:21.014Z,96325.34
2022-10-22T02:45:52.612Z,96332.66
2022-10-22T02:47:25.715Z,96324.69
2022-10-22T02:48:57.339Z,96317.00
2022-10-22T02:50:28.990Z,96312.50
2022-10-22T02:52:00.886Z,96317.19
2022-10-22T02:53:32.487Z,96324.50
2022-10-22T02:55:04.548Z,96320.19
2022-10-22T02:56:36.216Z,96321.41
2022-10-22T02:58:07.839Z,96325.34
2022-10-22T02:59:39.474Z,96321.06
2022-10-22T03:01:13.747Z,96318.38
2022-10-22T03:02:49.073Z,96313.69
2022-10-22T03:04:20.656Z,96318.38
2022-10-22T03:05:52.373Z,96313.56
2022-10-22T03:07:23.982Z,96317.06
2022-10-22T03:08:55.670Z,96308.59
2022-10-22T03:10:27.332Z,96314.78
2022-10-22T03:11:58.980Z,96302.44
2022-10-22T03:13:30.556Z,96306.63
2022-10-22T03:15:02.120Z,96297.72
2022-10-22T03:16:33.775Z,96306.78
2022-10-22T03:18:06.800Z,96309.88
2022-10-22T03:19:38.514Z,96311.75
2022-10-22T03:21:11.360Z,96315.97
2022-10-22T03:22:43.087Z,96325.63
2022-10-22T03:24:16.319Z,96327.50
2022-10-22T03:25:48.277Z,96333.56
2022-10-22T03:27:20.384Z,96334.19
2022-10-22T03:28:51.972Z,96336.63
2022-10-22T03:30:23.575Z,96326.22
2022-10-22T03:31:55.376Z,96326.69
2022-10-22T03:33:28.350Z,96331.00
2022-10-22T03:36:31.627Z,96331.56
2022-10-22T03:38:03.249Z,96330.84
2022-10-22T03:39:34.908Z,96330.81
2022-10-22T03:41:06.596Z,96335.44
2022-10-22T03:42:38.303Z,96323.13
2022-10-22T03:44:10.132Z,96332.66
2022-10-22T03:45:41.789Z,96328.44
2022-10-22T03:47:13.795Z,96329.88
2022-10-22T03:48:46.738Z,96330.75
2022-10-22T03:50:18.757Z,96330.50
2022-10-22T03:51:50.626Z,96335.63
2022-10-22T03:53:22.238Z,96344.06
2022-10-22T03:54:54.038Z,96327.59
2022-10-22T03:56:25.624Z,96327.34
2022-10-22T03:57:57.205Z,96328.16
2022-10-22T03:59:28.835Z,96329.56
2022-10-22T04:01:04.828Z,96331.50
2022-10-22T04:02:36.470Z,96335.50
2022-10-22T04:04:09.452Z,96339.03
2022-10-22T04:05:41.058Z,96336.88
2022-10-22T04:07:12.673Z,96343.50
2022-10-22T04:08:44.377Z,96351.59
2022-10-22T04:10:16.178Z,96346.75
2022-10-22T04:11:47.779Z,96344.13
2022-10-22T04:13:19.452Z,96346.84
2022-10-22T04:14:51.052Z,96358.69
2022-10-22T04:16:25.004Z,96356.31
2022-10-22T04:17:59.131Z,96355.72
2022-10-22T04:19:32.074Z,96360.13
2022-10-22T04:21:04.241Z,96358.53
2022-10-22T04:22:36.012Z,96360.66
2022-10-22T04:24:07.739Z,96365.66
2022-10-22T04:25:39.422Z,96354.56
2022-10-22T04:27:11.028Z,96355.19
2022-10-22T04:28:42.755Z,96338.88
2022-10-22T04:30:14.380Z,96349.53
2022-10-22T04:31:45.960Z,96340.78
2022-10-22T04:33:18.110Z,96346.84
2022-10-22T04:34:51.042Z,96351.91
2022-10-22T04:36:22.792Z,96348.50
2022-10-22T04:37:54.551Z,96350.81
2022-10-22T04:39:26.303Z,96345.09
2022-10-22T04:40:57.928Z,96343.31
2022-10-22T04:42:29.560Z,96348.97
2022-10-22T04:44:01.244Z,96348.03
2022-10-22T04:45:32.942Z,96345.06
2022-10-22T04:47:04.655Z,96340.88
2022-10-22T04:48:36.532Z,96346.66
2022-10-22T04:50:09.881Z,96345.16
2022-10-22T04:51:41.502Z,96362.50
2022-10-22T04:53:13.107Z,96366.53
2022-10-22T04:54:44.707Z,96355.00
2022-10-22T04:56:19.828Z,96356.22
2022-10-22T04:57:51.410Z,96351.94
2022-10-22T04:59:23.058Z,96361.63
2022-10-22T05:00:54.714Z,96339.53
2022-10-22T05:02:26.317Z,96339.91
2022-10-22T05:03:59.108Z,96351.44
2022-10-22T05:05:32.370Z,96350.72
2022-10-22T05:07:03.965Z,96357.34
2022-10-22T05:08:35.698Z,96358.38
2022-10-22T05:10:08.533Z,96359.69
2022-10-22T05:11:46.136Z,96348.31
2022-10-22T05:13:17.735Z,96352.78
2022-10-22T05:14:49.389Z,96351.19
2022-10-22T05:16:20.981Z,96347.88
2022-10-22T05:17:52.621Z,96338.88
2022-10-22T05:19:25.271Z,96340.31
2022-10-22T05:20:58.203Z,96334.84
2022-10-22T05:22:29.866Z,96342.63
2022-10-22T05:24:01.499Z,96336.22
2022-10-22T05:25:37.101Z,96344.00
2022-10-22T05:27:08.883Z,96345.63
2022-10-22T05:28:40.653Z,96347.06
2022-10-22T05:30:12.752Z,96345.38
2022-10-22T05:31:44.398Z,96346.09
2022-10-22T05:33:16.065Z,96355.78
2022-10-22T05:34:47.662Z,96352.03
2022-10-22T05:36:21.548Z,96362.81
2022-10-22T05:37:53.180Z,96360.59
2022-10-22T05:39:24.825Z,96359.31
2022-10-22T05:41:00.645Z,96357.41
2022-10-22T05:42:32.326Z,96356.78
2022-10-22T05:44:04.114Z,96353.69
2022-10-22T05:45:36.704Z,96359.31
2022-10-22T05:47:09.982Z,96356.91
2022-10-22T05:48:41.684Z,96363.53
2022-10-22T05:50:13.546Z,96362.84
2022-10-22T05:51:46.912Z,96361.56
2022-10-22T05:53:18.578Z,96366.84
2022-10-22T05:54:50.186Z,96356.91
2022-10-22T05:56:21.968Z,96362.34
2022-10-22T05:57:53.599Z,96361.13
2022-10-22T05:59:25.261Z,96374.50
2022-10-22T06:01:01.468Z,96378.91
2022-10-22T06:02:33.199Z,96387.91
2022-10-22T06:04:06.073Z,96384.03
2022-10-22T06:05:37.809Z,96386.28
2022-10-22T06:07:10.935Z,96393.38
2022-10-22T06:08:42.546Z,96393.50
2022-10-22T06:10:14.829Z,96392.88
2022-10-22T06:11:46.761Z,96397.09
2022-10-22T06:13:18.396Z,96397.72
2022-10-22T06:14:49.962Z,96400.34
2022-10-22T06:16:21.570Z,96393.84
2022-10-22T06:17:53.159Z,96389.56
2022-10-22T06:19:26.828Z,96400.50
2022-10-22T06:21:04.246Z,96402.81
2022-10-22T06:22:37.218Z,96399.50
2022-10-22T06:24:09.315Z,96396.63
2022-10-22T06:25:41.105Z,96402.75
2022-10-22T06:27:12.706Z,96399.50
2022-10-22T06:28:44.357Z,96404.63
2022-10-22T06:30:16.113Z,96406.22
2022-10-22T06:31:47.787Z,96411.94
2022-10-22T06:33:19.390Z,96419.91
2022-10-22T06:34:51.059Z,96423.94
2022-10-22T06:36:23.297Z,96432.53
2022-10-22T06:37:56.237Z,96438.78
2022-10-22T06:39:28.070Z,96438.34
2022-10-22T06:41:02.984Z,96435.56
2022-10-22T06:42:34.578Z,96431.91
2022-10-22T06:44:06.159Z,96434.59
2022-10-22T06:45:37.804Z,96434.19
2022-10-22T06:47:09.410Z,96435.66
2022-10-22T06:48:41.100Z,96445.38
2022-10-22T06:50:12.713Z,96441.69
2022-10-22T06:51:44.352Z,96444.28
2022-10-22T06:53:17.632Z,96439.59
2022-10-22T06:54:49.292Z,96441.03
2022-10-22T06:56:21.765Z,96434.66
2022-10-22T06:57:53.371Z,96445.00
2022-10-22T06:59:25.006Z,96445.31
2022-10-22T07:01:01.759Z,96450.78
2022-10-22T07:02:33.511Z,96454.31
2022-10-22T07:04:05.444Z,96450.91
2022-10-22T07:05:37.094Z,96454.00
2022-10-22T07:07:08.671Z,96457.41
2022-10-22T07:08:41.874Z,96455.84
2022-10-22T07:10:13.483Z,96457.81
2022-10-22T07:11:45.773Z,96459.31
2022-10-22T07:13:17.416Z,96463.13
2022-10-22T07:14:49.015Z,96467.28
2022-10-22T07:16:20.653Z,96469.97
2022-10-22T07:17:52.221Z,96471.28
2022-10-22T07:19:23.818Z,96473.94
2022-10-22T07:20:55.473Z,96473.59
2022-10-22T07:22:27.191Z,96480.84
2022-10-22T07:24:00.288Z,96485.13
2022-10-22T07:25:31.915Z,96491.22
2022-10-22T07:27:05.108Z,96484.81
2022-10-22T07:28:39.898Z,96482.50
2022-10-22T07:30:12.103Z,96489.25
2022-10-22T07:31:43.772Z,96485.44
2022-10-22T07:33:15.477Z,96487.81
2022-10-22T07:34:47.086Z,96492.41
2022-10-22T07:36:18.862Z,96493.28
2022-10-22T07:37:50.469Z,96494.81
2022-10-22T07:39:25.736Z,96497.91
2022-10-22T07:40:57.386Z,96492.63
2022-10-22T07:44:01.502Z,96496.16
2022-10-22T07:45:33.836Z,96498.47
2022-10-22T07:47:05.513Z,96499.16
2022-10-22T07:48:37.292Z,96501.94
2022-10-22T07:50:09.769Z,96505.78
2022-10-22T07:51:41.377Z,96502.69
2022-10-22T07:53:13.062Z,96511.47
2022-10-22T07:54:45.994Z,96502.19
2022-10-22T07:56:17.902Z,96514.13
2022-10-22T07:57:49.480Z,96508.84
2022-10-22T07:59:21.173Z,96514.59
2022-10-22T08:00:55.197Z,96515.00
2022-10-22T08:02:26.782Z,96513.06
2022-10-22T08:03:58.363Z,96506.63
2022-10-22T08:05:30.019Z,96508.53
2022-10-22T08:07:01.726Z,96507.69
2022-10-22T08:08:34.706Z,96510.19
2022-10-22T08:10:08.905Z,96508.34
2022-10-22T08:11:40.536Z,96508.88
2022-10-22T08:13:12.399Z,96511.56
2022-10-22T08:14:44.030Z,96513.53
2022-10-22T08:16:15.682Z,96517.22
2022-10-22T08:17:47.310Z,96518.13
2022-10-22T08:19:21.079Z,96514.41
2022-10-22T08:20:52.878Z,96520.66
2022-10-22T08:22:24.493Z,96520.22
2022-10-22T08:23:56.101Z,96512.13
2022-10-22T08:25:29.172Z,96510.63
2022-10-22T08:27:00.849Z,96523.78
2022-10-22T08:28:36.913Z,96524.16
2022-10-22T08:30:09.998Z,96528.50
2022-10-22T08:31:41.637Z,96527.78
2022-10-22T08:33:13.256Z,96529.38
2022-10-22T08:34:44.903Z,96524.88
2022-10-22T08:36:16.524Z,96524.19
2022-10-22T08:37:48.192Z,96527.28
2022-10-22T08:39:19.830Z,96522.75
2022-10-22T08:40:54.328Z,96535.09
2022-10-22T08:42:40.680Z,96527.09
2022-10-22T08:44:29.949Z,96523.59
2022-10-22T08:46:08.816Z,96520.91
2022-10-22T08:47:59.206Z,96522.13
2022-10-22T08:49:35.105Z,96520.44
2022-10-22T08:51:10.865Z,96521.19
2022-10-22T08:52:43.023Z,96519.66
2022-10-22T08:54:19.042Z,96523.16
2022-10-22T08:55:53.749Z,96523.53
2022-10-22T08:57:40.342Z,96523.09
2022-10-22T08:59:14.679Z,96530.50
2022-10-22T09:00:47.654Z,96523.53
2022-10-22T09:02:33.628Z,96526.56
2022-10-22T09:04:07.106Z,96528.53
2022-10-22T09:05:42.609Z,96530.50
2022-10-22T09:07:14.215Z,96533.19
2022-10-22T09:08:46.522Z,96527.81
2022-10-22T09:10:18.852Z,96530.91
2022-10-22T09:11:52.780Z,96538.97
2022-10-22T09:13:24.545Z,96539.47
2022-10-22T09:14:56.171Z,96531.47
2022-10-22T09:16:34.205Z,96537.59
2022-10-22T09:18:15.199Z,96542.50
2022-10-22T09:19:52.665Z,96547.19
2022-10-22T09:21:27.893Z,96548.84
2022-10-22T09:23:05.170Z,96547.25
2022-10-22T09:24:37.637Z,96548.38
2022-10-22T09:26:13.550Z,96544.59
2022-10-22T09:27:46.555Z,96546.16
2022-10-22T09:29:19.812Z,96550.59
2022-10-22T09:30:51.905Z,96550.50
2022-10-22T09:32:23.756Z,96549.94
2022-10-22T09:33:55.448Z,96549.56
2022-10-22T09:35:27.233Z,96553.31
2022-10-22T09:36:59.768Z,96553.06
2022-10-22T09:38:32.584Z,96559.34
2022-10-22T09:40:04.657Z,96557.84
2022-10-22T09:41:36.247Z,96547.81
2022-10-22T09:43:10.845Z,96560.09
2022-10-22T09:44:46.317Z,96562.81
2022-10-22T09:46:20.679Z,96559.44
2022-10-22T09:48:18.818Z,96559.06
2022-10-22T09:49:50.464Z,96557.84
2022-10-22T09:51:25.794Z,96560.91
2022-10-22T09:53:01.583Z,96560.75
2022-10-22T09:54:42.397Z,96560.69
2022-10-22T09:56:18.766Z,96561.03
2022-10-22T09:57:53.138Z,96553.78
2022-10-22T09:59:30.479Z,96560.31
2022-10-22T10:01:02.255Z,96563.19
2022-10-22T10:02:38.587Z,96566.75
2022-10-22T10:04:12.145Z,96573.94
2022-10-22T10:05:44.574Z,96570.00
2022-10-22T10:07:16.744Z,96567.78
2022-10-22T10:08:48.897Z,96564.84
2022-10-22T10:10:25.117Z,96568.41
2022-10-22T10:11:59.331Z,96567.94
2022-10-22T10:13:38.230Z,96562.03
2022-10-22T10:15:16.708Z,96567.59
2022-10-22T10:16:54.140Z,96568.91
2022-10-22T10:18:31.039Z,96562.78
2022-10-22T10:20:10.524Z,96561.25
2022-10-22T10:21:47.303Z,96562.81
2022-10-22T10:23:24.436Z,96561.38
2022-10-22T10:25:04.999Z,96560.59
2022-10-22T10:26:38.878Z,96564.44
2022-10-22T10:28:18.399Z,96570.63
2022-10-22T10:29:52.796Z,96566.34
2022-10-22T10:31:33.014Z,96568.56
2022-10-22T10:33:13.767Z,96564.38
2022-10-22T10:34:48.307Z,96558.16
2022-10-22T10:36:24.687Z,96558.34
2022-10-22T10:38:04.414Z,96570.53
2022-10-22T10:39:39.659Z,96568.63
2022-10-22T10:41:18.138Z,96559.53
2022-10-22T10:42:53.195Z,96560.84
2022-10-22T10:44:36.567Z,96556.66
2022-10-22T10:46:10.973Z,96565.50
2022-10-22T10:48:09.890Z,96569.19
2022-10-22T10:49:41.586Z,96576.44
2022-10-22T10:51:26.213Z,96571.59
2022-10-22T10:53:02.592Z,96573.16
2022-10-22T10:54:42.515Z,96566.28
2022-10-22T10:56:24.155Z,96568.94
2022-10-22T10:57:59.824Z,96568.19
2022-10-22T10:59:38.924Z,96569.34
2022-10-22T11:01:16.883Z,96567.09
2022-10-22T11:03:12.605Z,96572.63
2022-10-22T11:05:13.068Z,96567.63
2022-10-22T11:06:44.827Z,96563.03
2022-10-22T11:08:18.814Z,96568.94
2022-10-22T11:09:53.370Z,96573.63
2022-10-22T11:11:29.830Z,96574.75
2022-10-22T11:13:05.078Z,96562.81
2022-10-22T11:14:40.079Z,96566.25
2022-10-22T11:16:16.630Z,96567.88
2022-10-22T11:17:48.817Z,96563.56
2022-10-22T11:19:39.635Z,96558.97
2022-10-22T11:21:19.090Z,96559.47
2022-10-22T11:23:17.585Z,96558.44
2022-10-22T11:24:47.677Z,96557.78
2022-10-22T11:26:26.742Z,96564.25
2022-10-22T11:28:06.598Z,96560.28
2022-10-22T11:29:41.095Z,96563.00
2022-10-22T11:31:15.722Z,96563.75
2022-10-22T11:32:48.043Z,96554.94
2022-10-22T11:34:33.290Z,96562.31
2022-10-22T11:36:05.943Z,96552.63
2022-10-22T11:37:39.167Z,96559.94
2022-10-22T11:39:30.210Z,96561.63
2022-10-22T11:41:02.610Z,96556.53
2022-10-22T11:42:34.910Z,96561.16
2022-10-22T11:44:10.490Z,96560.00
2022-10-22T11:45:42.731Z,96560.00
2022-10-22T11:47:18.925Z,96565.44
2022-10-22T11:49:01.246Z,96562.72
2022-10-22T11:50:50.723Z,96561.25
2022-10-22T11:52:24.279Z,96555.84
2022-10-22T11:53:56.013Z,96548.91
2022-10-22T11:55:31.466Z,96550.84
2022-10-22T11:57:17.548Z,96550.88
2022-10-22T11:58:52.328Z,96552.03
2022-10-22T12:00:39.826Z,96545.09
2022-10-22T12:02:42.268Z,96547.72
2022-10-22T12:04:18.975Z,96547.69
2022-10-22T12:06:11.567Z,96545.41
2022-10-22T12:07:51.745Z,96540.00
2022-10-22T12:09:24.704Z,96538.09
2022-10-22T12:11:11.881Z,96540.31
2022-10-22T12:12:43.666Z,96545.31
2022-10-22T12:14:22.980Z,96539.94
2022-10-22T12:15:56.659Z,96546.13
2022-10-22T12:17:28.382Z,96543.88
2022-10-22T12:19:02.904Z,96543.41
2022-10-22T12:20:34.504Z,96535.94
2022-10-22T12:22:13.955Z,96541.38
2022-10-22T12:23:46.717Z,96543.75
2022-10-22T12:25:21.445Z,96536.72
2022-10-22T12:26:53.200Z,96538.94
2022-10-22T12:28:24.814Z,96535.03
2022-10-22T12:29:57.112Z,96535.41
2022-10-22T12:31:28.929Z,96533.72
2022-10-22T12:33:01.992Z,96532.63
2022-10-22T12:34:33.620Z,96529.56
2022-10-22T12:36:06.071Z,96538.38
2022-10-22T12:37:39.306Z,96530.72
2022-10-22T12:39:12.657Z,96531.72
2022-10-22T12:40:48.728Z,96533.91
2022-10-22T12:42:22.534Z,96518.84
2022-10-22T12:43:59.081Z,96528.06
2022-10-22T12:45:32.013Z,96521.88
2022-10-22T12:47:03.640Z,96525.72
2022-10-22T12:48:37.398Z,96530.56
2022-10-22T12:50:16.143Z,96520.25
2022-10-22T12:51:47.904Z,96520.38
2022-10-22T12:53:22.615Z,96522.03
2022-10-22T12:54:54.802Z,96526.00
2022-10-22T12:56:27.554Z,96518.63
2022-10-22T12:57:59.116Z,96525.13
2022-10-22T12:59:33.030Z,96514.97
2022-10-22T13:01:04.852Z,96518.31
2022-10-22T13:02:36.479Z,96519.69
2022-10-22T13:04:20.286Z,96516.47
2022-10-22T13:05:51.907Z,96525.78
2022-10-22T13:07:23.564Z,96525.19
2022-10-22T13:08:58.885Z,96523.47
2022-10-22T13:10:32.078Z,96528.97
2022-10-22T13:12:07.405Z,96520.16
2022-10-22T13:13:43.068Z,96517.75
2022-10-22T13:15:22.920Z,96513.97
2022-10-22T13:17:08.490Z,96513.31
2022-10-22T13:18:40.307Z,96518.47
2022-10-22T13:20:18.007Z,96512.75
2022-10-22T13:21:49.578Z,96521.91
2022-10-22T13:23:22.117Z,96522.16
2022-10-22T13:24:59.308Z,96516.72
2022-10-22T13:26:32.867Z,96516.34
2022-10-22T13:28:16.693Z,96514.69
2022-10-22T13:29:48.696Z,96509.28
2022-10-22T13:31:21.520Z,96517.47
2022-10-22T13:32:54.311Z,96514.88
2022-10-22T13:34:25.949Z,96509.19
2022-10-22T13:35:57.508Z,96516.88
2022-10-22T13:37:30.034Z,96520.84
2022-10-22T13:39:02.020Z,96516.34
2022-10-22T13:40:35.055Z,96512.69
2022-10-22T13:42:11.557Z,96514.25
2022-10-22T13:43:43.218Z,96507.09
2022-10-22T13:45:15.214Z,96510.88
2022-10-22T13:46:46.881Z,96508.81
2022-10-22T13:48:21.718Z,96506.16
2022-10-22T13:51:29.035Z,96507.03
2022-10-22T13:53:00.646Z,96500.09
2022-10-22T13:54:32.235Z,96499.19
2022-10-22T13:56:05.595Z,96502.63
2022-10-22T13:57:37.163Z,96508.56
2022-10-22T13:59:09.062Z,96502.81
2022-10-22T14:00:41.774Z,96505.06
2022-10-22T14:02:13.556Z,96502.78
2022-10-22T14:03:45.186Z,96494.28
2022-10-22T14:05:16.871Z,96501.41
2022-10-22T14:06:48.461Z,96495.38
2022-10-22T14:08:20.693Z,96495.06
2022-10-22T14:09:52.321Z,96492.09
2022-10-22T14:11:27.185Z,96495.56
2022-10-22T14:12:58.762Z,96486.28
2022-10-22T14:14:30.367Z,96490.94
2022-10-22T14:16:02.007Z,96489.28
2022-10-22T14:17:33.570Z,96485.41
2022-10-22T14:19:05.224Z,96491.50
2022-10-22T14:20:37.367Z,96490.53
2022-10-22T14:22:13.123Z,96491.66
2022-10-22T14:23:46.117Z,96486.97
2022-10-22T14:25:18.946Z,96490.59
2022-10-22T14:26:51.893Z,96489.38
2022-10-22T14:28:23.529Z,96488.13
2022-10-22T14:29:59.409Z,96484.38
2022-10-22T14:31:31.276Z,96482.38
2022-10-22T14:33:02.915Z,96485.81
2022-10-22T14:34:35.272Z,96490.19
2022-10-22T14:36:07.292Z,96493.84
2022-10-22T14:37:38.870Z,96488.63
2022-10-22T14:39:10.550Z,96494.38
2022-10-22T14:40:42.952Z,96489.97
2022-10-22T14:42:16.655Z,96491.16
2022-10-22T14:43:48.364Z,96486.16
2022-10-22T14:45:21.243Z,96477.53
2022-10-22T14:46:56.166Z,96483.38
2022-10-22T14:48:27.752Z,96491.56
2022-10-22T14:49:59.527Z,96488.66
2022-10-22T14:51:31.147Z,96487.94
2022-10-22T14:53:02.714Z,96493.72
2022-10-22T14:54:35.266Z,96496.50
2022-10-22T14:56:06.953Z,96493.09
2022-10-22T14:57:40.253Z,96494.75
2022-10-22T14:59:12.212Z,96495.41
2022-10-22T15:00:43.943Z,96496.69
2022-10-22T15:02:15.596Z,96500.16
2022-10-22T15:03:47.241Z,96500.63
2022-10-22T15:05:19.208Z,96493.91
2022-10-22T15:06:50.772Z,96494.38
2022-10-22T15:08:22.330Z,96496.78
2022-10-22T15:09:54.043Z,96494.09
2022-10-22T15:11:25.704Z,96486.69
2022-10-22T15:12:58.686Z,96486.31
2022-10-22T15:14:33.097Z,96492.09
2022-10-22T15:16:05.910Z,96495.22
2022-10-22T15:17:37.581Z,96496.75
2022-10-22T15:19:11.102Z,96500.28
2022-10-22T15:20:42.719Z,96498.34
2022-10-22T15:22:14.481Z,96496.03
2022-10-22T15:23:46.083Z,96494.91
2022-10-22T15:25:17.702Z,96485.63
2022-10-22T15:26:50.931Z,96484.13
2022-10-22T15:28:24.416Z,96493.72
2022-10-22T15:29:58.746Z,96482.22
2022-10-22T15:31:47.282Z,96487.25
2022-10-22T15:33:18.995Z,96484.13
2022-10-22T15:34:52.447Z,96481.06
2022-10-22T15:36:24.202Z,96484.16
2022-10-22T15:37:55.831Z,96481.06
2022-10-22T15:39:27.481Z,96478.38
2022-10-22T15:41:04.575Z,96479.53
2022-10-22T15:42:37.396Z,96476.09
2022-10-22T15:44:12.493Z,96481.47
2022-10-22T15:45:44.416Z,96479.19
2022-10-22T15:47:16.034Z,96483.03
2022-10-22T15:48:47.651Z,96482.66
2022-10-22T15:50:19.453Z,96479.19
2022-10-22T15:51:51.088Z,96480.72
2022-10-22T15:53:22.674Z,96480.34
2022-10-22T15:54:54.412Z,96482.25
2022-10-22T15:56:26.692Z,96488.06
2022-10-22T15:58:00.624Z,96493.06
2022-10-22T15:59:36.650Z,96496.53
2022-10-22T16:01:09.225Z,96503.06
2022-10-22T16:02:40.930Z,96499.59
2022-10-22T16:04:12.582Z,96510.38
2022-10-22T16:05:50.254Z,96509.19
2022-10-22T16:07:23.977Z,96507.63
2022-10-22T16:08:56.678Z,96502.25
2022-10-22T16:10:28.419Z,96505.59
2022-10-22T16:12:00.168Z,96509.84
2022-10-22T16:13:31.796Z,96506.84
2022-10-22T16:15:05.756Z,96503.69
2022-10-22T16:16:39.799Z,96502.91
2022-10-22T16:18:11.377Z,96505.25
2022-10-22T16:19:42.935Z,96501.78
2022-10-22T16:21:14.647Z,96502.56
2022-10-22T16:22:49.699Z,96502.13
2022-10-22T16:24:21.426Z,96502.84
2022-10-22T16:25:53.102Z,96502.03
2022-10-22T16:27:27.182Z,96508.78
2022-10-22T16:28:58.800Z,96498.94
2022-10-22T16:30:32.521Z,96508.19
2022-10-22T16:32:04.601Z,96502.03
2022-10-22T16:33:41.486Z,96503.53
2022-10-22T16:35:16.436Z,96502.03
2022-10-22T16:36:48.891Z,96506.53
2022-10-22T16:38:20.539Z,96499.22
2022-10-22T16:39:52.142Z,96509.63
2022-10-22T16:41:24.399Z,96507.59
2022-10-22T16:42:56.009Z,96510.19
2022-10-22T16:44:27.765Z,96507.81
2022-10-22T16:46:03.061Z,96509.50
2022-10-22T16:47:34.679Z,96516.44
2022-10-22T16:49:06.459Z,96521.59
2022-10-22T16:50:39.051Z,96521.31
2022-10-22T16:52:10.630Z,96521.78
2022-10-22T16:53:42.434Z,96520.25
2022-10-22T16:55:14.131Z,96514.47
2022-10-22T16:56:45.772Z,96524.78
2022-10-22T16:58:17.458Z,96528.56
2022-10-22T16:59:49.182Z,96521.94
2022-10-22T17:01:23.157Z,96524.69
2022-10-22T17:02:54.893Z,96525.09
2022-10-22T17:04:26.543Z,96525.31
2022-10-22T17:05:58.362Z,96534.94
2022-10-22T17:07:30.050Z,96528.09
2022-10-22T17:09:01.802Z,96520.31
2022-10-22T17:10:35.248Z,96524.66
2022-10-22T17:12:06.983Z,96531.91
2022-10-22T17:13:39.669Z,96532.09
2022-10-22T17:15:11.367Z,96535.13
2022-10-22T17:16:44.967Z,96538.97
2022-10-22T17:18:16.643Z,96537.81
2022-10-22T17:19:48.212Z,96533.97
2022-10-22T17:21:20.085Z,96544.41
2022-10-22T17:22:51.757Z,96530.19
2022-10-22T17:24:23.508Z,96540.75
2022-10-22T17:25:57.648Z,96537.25
2022-10-22T17:27:29.237Z,96541.41
2022-10-22T17:29:00.890Z,96536.16
2022-10-22T17:30:32.519Z,96542.03
2022-10-22T17:32:05.647Z,96530.97
2022-10-22T17:33:37.279Z,96534.16
2022-10-22T17:35:09.296Z,96538.03
2022-10-22T17:36:40.952Z,96531.75
2022-10-22T17:38:12.990Z,96547.22
2022-10-22T17:39:44.714Z,96544.53
2022-10-22T17:41:20.495Z,96541.19
2022-10-22T17:42:52.206Z,96540.19
2022-10-22T17:44:23.781Z,96535.50
2022-10-22T17:46:16.259Z,96533.22
2022-10-22T17:47:49.324Z,96542.91
2022-10-22T17:49:20.973Z,96544.09
2022-10-22T17:50:54.651Z,96541.78
2022-10-22T17:52:28.461Z,96531.72
2022-10-22T17:54:01.705Z,96544.69
2022-10-22T17:55:35.223Z,96544.34
2022-10-22T17:57:06.843Z,96537.00
2022-10-22T17:58:38.522Z,96541.56
2022-10-22T18:00:11.600Z,96539.09
2022-10-22T18:01:47.636Z,96533.31
2022-10-22T18:03:21.090Z,96533.66
2022-10-22T18:04:52.847Z,96539.06
2022-10-22T18:06:24.479Z,96536.75
2022-10-22T18:07:56.282Z,96538.09
2022-10-22T18:09:27.903Z,96535.19
2022-10-22T18:10:59.911Z,96538.34
2022-10-22T18:12:31.472Z,96537.91
2022-10-22T18:14:03.285Z,96537.94
2022-10-22T18:15:36.363Z,96538.31
2022-10-22T18:17:08.286Z,96537.47
2022-10-22T18:18:41.344Z,96535.00
2022-10-22T18:20:14.140Z,96535.91
2022-10-22T18:21:48.689Z,96529.97
2022-10-22T18:23:20.453Z,96531.22
2022-10-22T18:24:53.043Z,96540.00
2022-10-22T18:26:26.877Z,96531.72
2022-10-22T18:27:58.873Z,96539.25